Semyon Rudnev — USEH — position and weather

sailwx.info

Track history (hours):
 
Tides and Currents Weather Stations Pressure Air Temp Water Temp Dewpoint Dewpoint Depression Visibility Wind Speed Wind Dir Waves Ship Positions

Semyon Rudnev

Last reported at 2017-Dec-14 08:43 UTC. Time now 2018-Jan-18 21:56 UTC.
Position N 46°33' E 031°59'.
Warning: this ship's position is 35 days out of date.

Length 114 m; draft 2.6 m.

Type: Cargo ship. MMSI: 272075000.

Date/timePositionNaut miles runAvg speedWind from/ knotsBaromVisibWave heightAir tempDewpointWater temp
2017-Dec-14 08:43N 46°33' E 031°59'2 8.0
2017-Dec-14 08:30N 46°34' E 031°56'7 7.6
2017-Dec-14 07:35N 46°36' E 031°47'1 8.1
2017-Dec-14 07:26N 46°36' E 031°45'6 8.2
2017-Dec-14 06:43N 46°35' E 031°36'2 8.3
2017-Dec-14 06:30N 46°35' E 031°34'7 1.2
2017-Dec-14 00:22N 46°35' E 031°23'0 0.1
2017-Dec-14 00:00N 46°35' E 031°23'0 0.0
2017-Dec-13 22:01N 46°35' E 031°23'17 7.5
2017-Dec-13 19:43N 46°33' E 030°58'2 8.2
2017-Dec-13 19:26N 46°32' E 030°55'4 8.4
2017-Dec-13 19:00N 46°31' E 030°50'3 6.5
2017-Dec-13 18:30N 46°30' E 030°46'0 0.7
2017-Dec-13 17:55N 46°29' E 030°45'0 0.0
2017-Dec-13 17:28N 46°29' E 030°45'0 0.0
2017-Dec-13 17:00N 46°29' E 030°45'0 0.0
2017-Dec-13 16:28N 46°29' E 030°45'0 0.0
2017-Dec-13 15:59N 46°29' E 030°45'0 0.0
2017-Dec-13 15:25N 46°29' E 030°45'0 0.0
2017-Dec-13 14:43N 46°29' E 030°45'0 0.0
2017-Dec-13 14:30N 46°29' E 030°45'0 0.0
2017-Dec-13 13:55N 46°29' E 030°45'0 0.0
2017-Dec-13 13:17N 46°29' E 030°45'0 0.0
2017-Dec-13 12:56N 46°29' E 030°45'0 0.0
2017-Dec-13 12:29N 46°29' E 030°45'0 0.0
2017-Dec-13 11:55N 46°29' E 030°45'0 0.0
2017-Dec-13 11:29N 46°29' E 030°45'0 0.0
2017-Dec-13 11:00N 46°29' E 030°45'0 0.0
2017-Dec-13 10:29N 46°29' E 030°45'0 0.0
2017-Dec-13 09:57N 46°29' E 030°45'0 0.0
2017-Dec-13 09:24N 46°29' E 030°45'0 0.0
2017-Dec-13 08:59N 46°29' E 030°45'0 0.0
2017-Dec-13 08:27N 46°29' E 030°45'0 0.0
2017-Dec-13 08:00N 46°29' E 030°45'0 0.0
2017-Dec-13 07:28N 46°29' E 030°45'0 0.0
2017-Dec-13 06:57N 46°29' E 030°45'0 0.0
2017-Dec-13 06:30N 46°29' E 030°45'0 0.0
2017-Dec-13 05:56N 46°29' E 030°45'0 0.0
2017-Dec-13 05:26N 46°29' E 030°45'0 0.0
2017-Dec-13 04:54N 46°29' E 030°45'0 0.0
2017-Dec-13 04:30N 46°29' E 030°45'0 0.0
2017-Dec-13 03:57N 46°29' E 030°45'0 0.0
2017-Dec-13 03:22N 46°29' E 030°45'0 0.0
2017-Dec-13 02:51N 46°29' E 030°45'0 0.0
2017-Dec-13 02:27N 46°29' E 030°45'0 0.0
2017-Dec-13 02:00N 46°29' E 030°45'0 0.0
2017-Dec-13 01:26N 46°29' E 030°45'0 0.0
2017-Dec-13 00:45N 46°29' E 030°45'0 0.0
2017-Dec-13 00:29N 46°29' E 030°45'0 0.0
2017-Dec-12 23:54N 46°29' E 030°45'0 0.0
2017-Dec-12 23:21N 46°29' E 030°45'0 0.0
2017-Dec-12 22:57N 46°29' E 030°45'0 0.0
2017-Dec-12 22:11N 46°29' E 030°45'0 0.0
2017-Dec-12 21:55N 46°29' E 030°45'0 0.0
2017-Dec-12 21:29N 46°29' E 030°45'0 0.0
2017-Dec-12 20:57N 46°29' E 030°45'0 0.0
2017-Dec-12 20:15N 46°29' E 030°45'0 0.0
2017-Dec-12 19:55N 46°29' E 030°45'0 0.0
2017-Dec-12 19:25N 46°29' E 030°45'0 0.0
2017-Dec-12 18:52N 46°29' E 030°45'0 0.0
2017-Dec-12 18:22N 46°29' E 030°45'0 0.0
2017-Dec-12 17:54N 46°29' E 030°45'0 0.0
2017-Dec-12 17:27N 46°29' E 030°45'0 0.0
2017-Dec-12 17:00N 46°29' E 030°45'0 0.0
2017-Dec-12 15:48N 46°29' E 030°45'0 0.0
2017-Dec-12 15:15N 46°29' E 030°45'0 0.0
2017-Dec-12 14:53N 46°29' E 030°45'0 0.0
2017-Dec-12 14:29N 46°29' E 030°45'0 0.0
2017-Dec-12 13:58N 46°29' E 030°45'0 0.0
2017-Dec-12 13:17N 46°29' E 030°45'0 0.0
2017-Dec-12 12:57N 46°29' E 030°45'0 0.0
2017-Dec-12 12:30N 46°29' E 030°45'0 0.5
2017-Dec-12 12:00N 46°30' E 030°45'2 3.9
2017-Dec-12 11:30N 46°31' E 030°48'3 7.0
2017-Dec-12 11:00N 46°31' E 030°53'12 6.9
2017-Dec-12 09:15N 46°35' E 031°10'2 7.3
2017-Dec-12 08:56N 46°35' E 031°13'3 7.1
2017-Dec-12 08:30N 46°35' E 031°17'4 7.6
2017-Dec-12 08:00N 46°35' E 031°23'4 7.8
2017-Dec-12 07:30N 46°36' E 031°28'4 7.3
2017-Dec-12 07:00N 46°35' E 031°33'4 7.6
2017-Dec-12 06:30N 46°36' E 031°39'3 0.1
2017-Dec-10 19:24N 46°36' E 031°43'0 0.0
2017-Dec-10 17:27N 46°36' E 031°43'0 0.0
2017-Dec-10 16:57N 46°36' E 031°43'0 0.0
2017-Dec-10 16:27N 46°36' E 031°43'0 0.0
2017-Dec-10 15:51N 46°36' E 031°43'0 0.0
2017-Dec-10 15:27N 46°36' E 031°43'0 0.0
2017-Dec-10 15:00N 46°36' E 031°43'0 0.0
2017-Dec-10 14:27N 46°36' E 031°43'0 0.0
2017-Dec-10 13:57N 46°36' E 031°43'2 3.8
2017-Dec-10 13:30N 46°36' E 031°46'3 6.4
2017-Dec-10 13:00N 46°35' E 031°50'3 6.7
2017-Dec-10 12:30N 46°34' E 031°55'4 7.4
2017-Dec-10 12:00N 46°33' E 032°00'4 7.4
2017-Dec-10 11:30N 46°32' E 032°05'135 4.5
2017-Dec-09 05:47N 47°34' E 035°01'4 6.0
2017-Dec-09 05:05N 47°38' E 035°04'0 0.0
2017-Dec-08 18:52N 47°38' E 035°04'2 3.7
2017-Dec-08 18:14N 47°39' E 035°07'2 8.8
2017-Dec-08 17:59N 47°41' E 035°08'4 8.2
2017-Dec-08 17:30N 47°45' E 035°10'4 7.1
2017-Dec-08 17:00N 47°48' E 035°10'0 0.4
2017-Dec-08 16:28N 47°49' E 035°09'0 0.0
2017-Dec-08 15:58N 47°49' E 035°09'0 0.0
2017-Dec-08 15:28N 47°49' E 035°09'0 0.0
2017-Dec-08 14:58N 47°49' E 035°09'0 0.2
2017-Dec-08 14:28N 47°49' E 035°09'2 4.0
2017-Dec-08 14:00N 47°50' E 035°07'2 4.7
2017-Dec-08 13:30N 47°52' E 035°05'0 0.1
2017-Dec-08 13:00N 47°52' E 035°06'1 1.3
2017-Dec-08 12:30N 47°52' E 035°06'0 0.4
2017-Dec-08 11:59N 47°52' E 035°06'0 0.0
2017-Dec-08 11:29N 47°52' E 035°06'0 0.7
2017-Dec-08 11:00N 47°53' E 035°06'3 7.0
2017-Dec-08 10:30N 47°56' E 035°07'6 7.9
2017-Dec-08 09:48N 48°02' E 035°08'  
Track history (hours):
 
Tides and Currents Weather Stations Pressure Air Temp Water Temp Dewpoint Dewpoint Depression Visibility Wind Speed Wind Dir Waves Ship Positions

Semyon Rudnev

Last reported at 2017-Dec-14 08:43 UTC. Time now 2018-Jan-18 21:56 UTC.
Position N 46°33' E 031°59'.
Warning: this ship's position is 35 days out of date.

Length 114 m; draft 2.6 m.

Type: Cargo ship. MMSI: 272075000.

Date/timePositionNaut miles runAvg speedWind from/ knotsBaromVisibWave heightAir tempDewpointWater temp
2017-Dec-14 08:43N 46°33' E 031°59'2 8.0
2017-Dec-14 08:30N 46°34' E 031°56'7 7.6
2017-Dec-14 07:35N 46°36' E 031°47'1 8.1
2017-Dec-14 07:26N 46°36' E 031°45'6 8.2
2017-Dec-14 06:43N 46°35' E 031°36'2 8.3
2017-Dec-14 06:30N 46°35' E 031°34'7 1.2
2017-Dec-14 00:22N 46°35' E 031°23'0 0.1
2017-Dec-14 00:00N 46°35' E 031°23'0 0.0
2017-Dec-13 22:01N 46°35' E 031°23'17 7.5
2017-Dec-13 19:43N 46°33' E 030°58'2 8.2
2017-Dec-13 19:26N 46°32' E 030°55'4 8.4
2017-Dec-13 19:00N 46°31' E 030°50'3 6.5
2017-Dec-13 18:30N 46°30' E 030°46'0 0.7
2017-Dec-13 17:55N 46°29' E 030°45'0 0.0
2017-Dec-13 17:28N 46°29' E 030°45'0 0.0
2017-Dec-13 17:00N 46°29' E 030°45'0 0.0
2017-Dec-13 16:28N 46°29' E 030°45'0 0.0
2017-Dec-13 15:59N 46°29' E 030°45'0 0.0
2017-Dec-13 15:25N 46°29' E 030°45'0 0.0
2017-Dec-13 14:43N 46°29' E 030°45'0 0.0
2017-Dec-13 14:30N 46°29' E 030°45'0 0.0
2017-Dec-13 13:55N 46°29' E 030°45'0 0.0
2017-Dec-13 13:17N 46°29' E 030°45'0 0.0
2017-Dec-13 12:56N 46°29' E 030°45'0 0.0
2017-Dec-13 12:29N 46°29' E 030°45'0 0.0
2017-Dec-13 11:55N 46°29' E 030°45'0 0.0
2017-Dec-13 11:29N 46°29' E 030°45'0 0.0
2017-Dec-13 11:00N 46°29' E 030°45'0 0.0
2017-Dec-13 10:29N 46°29' E 030°45'0 0.0
2017-Dec-13 09:57N 46°29' E 030°45'0 0.0
2017-Dec-13 09:24N 46°29' E 030°45'0 0.0
2017-Dec-13 08:59N 46°29' E 030°45'0 0.0
2017-Dec-13 08:27N 46°29' E 030°45'0 0.0
2017-Dec-13 08:00N 46°29' E 030°45'0 0.0
2017-Dec-13 07:28N 46°29' E 030°45'0 0.0
2017-Dec-13 06:57N 46°29' E 030°45'0 0.0
2017-Dec-13 06:30N 46°29' E 030°45'0 0.0
2017-Dec-13 05:56N 46°29' E 030°45'0 0.0
2017-Dec-13 05:26N 46°29' E 030°45'0 0.0
2017-Dec-13 04:54N 46°29' E 030°45'0 0.0
2017-Dec-13 04:30N 46°29' E 030°45'0 0.0
2017-Dec-13 03:57N 46°29' E 030°45'0 0.0
2017-Dec-13 03:22N 46°29' E 030°45'0 0.0
2017-Dec-13 02:51N 46°29' E 030°45'0 0.0
2017-Dec-13 02:27N 46°29' E 030°45'0 0.0
2017-Dec-13 02:00N 46°29' E 030°45'0 0.0
2017-Dec-13 01:26N 46°29' E 030°45'0 0.0
2017-Dec-13 00:45N 46°29' E 030°45'0 0.0
2017-Dec-13 00:29N 46°29' E 030°45'0 0.0
2017-Dec-12 23:54N 46°29' E 030°45'0 0.0
2017-Dec-12 23:21N 46°29' E 030°45'0 0.0
2017-Dec-12 22:57N 46°29' E 030°45'0 0.0
2017-Dec-12 22:11N 46°29' E 030°45'0 0.0
2017-Dec-12 21:55N 46°29' E 030°45'0 0.0
2017-Dec-12 21:29N 46°29' E 030°45'0 0.0
2017-Dec-12 20:57N 46°29' E 030°45'0 0.0
2017-Dec-12 20:15N 46°29' E 030°45'0 0.0
2017-Dec-12 19:55N 46°29' E 030°45'0 0.0
2017-Dec-12 19:25N 46°29' E 030°45'0 0.0
2017-Dec-12 18:52N 46°29' E 030°45'0 0.0
2017-Dec-12 18:22N 46°29' E 030°45'0 0.0
2017-Dec-12 17:54N 46°29' E 030°45'0 0.0
2017-Dec-12 17:27N 46°29' E 030°45'0 0.0
2017-Dec-12 17:00N 46°29' E 030°45'0 0.0
2017-Dec-12 15:48N 46°29' E 030°45'0 0.0
2017-Dec-12 15:15N 46°29' E 030°45'0 0.0
2017-Dec-12 14:53N 46°29' E 030°45'0 0.0
2017-Dec-12 14:29N 46°29' E 030°45'0 0.0
2017-Dec-12 13:58N 46°29' E 030°45'0 0.0
2017-Dec-12 13:17N 46°29' E 030°45'0 0.0
2017-Dec-12 12:57N 46°29' E 030°45'0 0.0
2017-Dec-12 12:30N 46°29' E 030°45'0 0.5
2017-Dec-12 12:00N 46°30' E 030°45'2 3.9
2017-Dec-12 11:30N 46°31' E 030°48'3 7.0
2017-Dec-12 11:00N 46°31' E 030°53'12 6.9
2017-Dec-12 09:15N 46°35' E 031°10'2 7.3
2017-Dec-12 08:56N 46°35' E 031°13'3 7.1
2017-Dec-12 08:30N 46°35' E 031°17'4 7.6
2017-Dec-12 08:00N 46°35' E 031°23'4 7.8
2017-Dec-12 07:30N 46°36' E 031°28'4 7.3
2017-Dec-12 07:00N 46°35' E 031°33'4 7.6
2017-Dec-12 06:30N 46°36' E 031°39'3 0.1
2017-Dec-10 19:24N 46°36' E 031°43'0 0.0
2017-Dec-10 17:27N 46°36' E 031°43'0 0.0
2017-Dec-10 16:57N 46°36' E 031°43'0 0.0
2017-Dec-10 16:27N 46°36' E 031°43'0 0.0
2017-Dec-10 15:51N 46°36' E 031°43'0 0.0
2017-Dec-10 15:27N 46°36' E 031°43'0 0.0
2017-Dec-10 15:00N 46°36' E 031°43'0 0.0
2017-Dec-10 14:27N 46°36' E 031°43'0 0.0
2017-Dec-10 13:57N 46°36' E 031°43'2 3.8
2017-Dec-10 13:30N 46°36' E 031°46'3 6.4
2017-Dec-10 13:00N 46°35' E 031°50'3 6.7
2017-Dec-10 12:30N 46°34' E 031°55'4 7.4
2017-Dec-10 12:00N 46°33' E 032°00'4 7.4
2017-Dec-10 11:30N 46°32' E 032°05'135 4.5
2017-Dec-09 05:47N 47°34' E 035°01'4 6.0
2017-Dec-09 05:05N 47°38' E 035°04'0 0.0
2017-Dec-08 18:52N 47°38' E 035°04'2 3.7
2017-Dec-08 18:14N 47°39' E 035°07'2 8.8
2017-Dec-08 17:59N 47°41' E 035°08'4 8.2
2017-Dec-08 17:30N 47°45' E 035°10'4 7.1
2017-Dec-08 17:00N 47°48' E 035°10'0 0.4
2017-Dec-08 16:28N 47°49' E 035°09'0 0.0
2017-Dec-08 15:58N 47°49' E 035°09'0 0.0
2017-Dec-08 15:28N 47°49' E 035°09'0 0.0
2017-Dec-08 14:58N 47°49' E 035°09'0 0.2
2017-Dec-08 14:28N 47°49' E 035°09'2 4.0
2017-Dec-08 14:00N 47°50' E 035°07'2 4.7
2017-Dec-08 13:30N 47°52' E 035°05'0 0.1
2017-Dec-08 13:00N 47°52' E 035°06'1 1.3
2017-Dec-08 12:30N 47°52' E 035°06'0 0.4
2017-Dec-08 11:59N 47°52' E 035°06'0 0.0
2017-Dec-08 11:29N 47°52' E 035°06'0 0.7
2017-Dec-08 11:00N 47°53' E 035°06'3 7.0
2017-Dec-08 10:30N 47°56' E 035°07'6 7.9
2017-Dec-08 09:48N 48°02' E 035°08'  

Dump ship's entire track history